createdAt,value
2019-04-29T00:02:10.071Z,1.52
2019-04-29T00:04:37.441Z,1.50
2019-04-29T00:07:05.165Z,2.52
2019-04-29T00:09:32.619Z,2.27
2019-04-29T00:12:00.179Z,1.67
2019-04-29T00:14:28.556Z,2.62
2019-04-29T00:16:57.554Z,1.65
2019-04-29T00:19:42.722Z,1.80
2019-04-29T00:22:10.215Z,2.50
2019-04-29T00:24:37.949Z,2.12
2019-04-29T00:27:05.419Z,1.72
2019-04-29T00:29:33.167Z,2.00
2019-04-29T00:32:00.561Z,2.00
2019-04-29T00:34:28.167Z,1.67
2019-04-29T00:37:12.431Z,1.75
2019-04-29T00:39:41.626Z,2.15
2019-04-29T00:42:13.489Z,1.62
2019-04-29T00:44:40.883Z,1.57
2019-04-29T00:47:08.302Z,2.35
2019-04-29T00:49:35.796Z,2.20
2019-04-29T00:52:03.356Z,1.90
2019-04-29T00:54:35.380Z,1.52
2019-04-29T00:57:02.735Z,2.12
2019-04-29T00:59:30.197Z,1.50
2019-04-29T01:02:11.986Z,1.35
2019-04-29T01:04:39.380Z,1.70
2019-04-29T01:07:06.899Z,1.92
2019-04-29T01:09:34.396Z,1.80
2019-04-29T01:12:01.752Z,1.37
2019-04-29T01:14:29.196Z,1.90
2019-04-29T01:16:56.564Z,1.72
2019-04-29T01:19:23.911Z,2.00
2019-04-29T01:21:51.332Z,1.60
2019-04-29T01:24:18.793Z,1.82
2019-04-29T01:26:47.783Z,2.40
2019-04-29T01:29:19.169Z,1.92
2019-04-29T01:31:46.697Z,1.75
2019-04-29T01:34:20.702Z,1.42
2019-04-29T01:36:48.064Z,2.05
2019-04-29T01:39:15.761Z,2.22
2019-04-29T01:42:02.669Z,1.57
2019-04-29T01:44:31.771Z,1.82
2019-04-29T01:46:59.136Z,1.27
2019-04-29T01:49:26.381Z,2.08
2019-04-29T01:51:53.612Z,1.85
2019-04-29T01:54:20.837Z,2.12
2019-04-29T01:56:48.067Z,1.12
2019-04-29T01:59:15.281Z,2.67
2019-04-29T02:01:42.527Z,2.27
2019-04-29T02:04:09.731Z,1.85
2019-04-29T02:06:36.963Z,2.10
2019-04-29T02:09:05.554Z,2.80
2019-04-29T02:11:32.793Z,2.00
2019-04-29T02:14:00.028Z,3.05
2019-04-29T02:16:27.255Z,2.30
2019-04-29T02:18:54.471Z,2.05
2019-04-29T02:21:21.701Z,2.20
2019-04-29T02:23:50.655Z,1.77
2019-04-29T02:26:17.891Z,2.00
2019-04-29T02:28:45.112Z,1.92
2019-04-29T02:31:30.359Z,1.82
2019-04-29T02:34:00.523Z,2.30
2019-04-29T02:36:30.067Z,1.98
2019-04-29T02:39:14.911Z,2.12
2019-04-29T02:41:43.788Z,1.92
2019-04-29T02:44:11.873Z,2.15
2019-04-29T02:46:39.115Z,2.30
2019-04-29T02:49:06.329Z,2.35
2019-04-29T02:51:44.203Z,2.02
2019-04-29T02:54:11.646Z,2.55
2019-04-29T02:56:39.968Z,1.90
2019-04-29T02:59:08.843Z,1.87
2019-04-29T03:01:53.024Z,2.02
2019-04-29T03:04:21.882Z,2.10
2019-04-29T03:06:49.112Z,2.52
2019-04-29T03:09:16.343Z,2.58
2019-04-29T03:11:43.642Z,1.80
2019-04-29T03:14:10.848Z,1.52
2019-04-29T03:16:38.693Z,1.95
2019-04-29T03:19:13.415Z,2.33
2019-04-29T03:21:42.287Z,3.60
2019-04-29T03:24:09.503Z,2.20
2019-04-29T03:26:36.754Z,1.92
2019-04-29T03:29:06.161Z,2.10
2019-04-29T03:31:39.163Z,1.80
2019-04-29T03:34:02.364Z,2.27
2019-04-29T03:36:29.604Z,2.15
2019-04-29T03:38:56.815Z,2.00
2019-04-29T03:41:24.052Z,3.00
2019-04-29T03:43:51.269Z,1.95
2019-04-29T03:46:18.493Z,2.77
2019-04-29T03:48:45.751Z,1.60
2019-04-29T03:51:13.032Z,2.17
2019-04-29T03:53:40.264Z,1.80
2019-04-29T03:56:07.496Z,2.20
2019-04-29T03:58:34.717Z,2.50
2019-04-29T04:01:15.583Z,1.90
2019-04-29T04:03:44.459Z,2.02
2019-04-29T04:06:15.999Z,1.82
2019-04-29T04:09:04.952Z,2.17
2019-04-29T04:11:19.755Z,2.72
2019-04-29T04:13:46.974Z,1.85
2019-04-29T04:16:15.841Z,2.27
2019-04-29T04:18:43.150Z,2.30
2019-04-29T04:21:10.636Z,1.95
2019-04-29T04:23:37.871Z,2.00
2019-04-29T04:26:05.165Z,1.80
2019-04-29T04:28:32.401Z,1.95
2019-04-29T04:30:59.645Z,2.90
2019-04-29T04:33:26.889Z,2.00
2019-04-29T04:35:54.107Z,1.90
2019-04-29T04:38:21.336Z,1.52
2019-04-29T04:40:59.042Z,1.40
2019-04-29T04:43:26.270Z,2.00
2019-04-29T04:45:53.520Z,2.37
2019-04-29T04:48:20.767Z,2.17
2019-04-29T04:50:47.970Z,2.90
2019-04-29T04:53:15.196Z,3.22
2019-04-29T04:55:43.692Z,2.33
2019-04-29T04:58:10.908Z,2.20
2019-04-29T05:00:38.199Z,1.70
2019-04-29T05:03:05.416Z,3.00
2019-04-29T05:05:32.627Z,3.58
2019-04-29T05:07:59.842Z,2.98
2019-04-29T05:10:27.090Z,1.70
2019-04-29T05:12:54.315Z,2.33
2019-04-29T05:15:21.516Z,2.58
2019-04-29T05:17:48.764Z,2.92
2019-04-29T05:20:16.133Z,1.70
2019-04-29T05:22:45.075Z,2.47
2019-04-29T05:25:12.435Z,1.98
2019-04-29T05:27:39.675Z,2.10
2019-04-29T05:30:07.768Z,2.90
2019-04-29T05:32:35.020Z,2.08
2019-04-29T05:35:03.900Z,2.50
2019-04-29T05:37:38.499Z,2.70
2019-04-29T05:40:05.766Z,2.50
2019-04-29T05:42:33.040Z,2.92
2019-04-29T05:45:07.770Z,2.25
2019-04-29T05:47:39.732Z,2.67
2019-04-29T05:50:25.091Z,3.00
2019-04-29T05:52:56.672Z,3.17
2019-04-29T05:55:23.905Z,3.35
2019-04-29T05:57:51.179Z,2.27
2019-04-29T06:00:23.283Z,2.52
2019-04-29T06:02:48.396Z,2.50
2019-04-29T06:05:15.615Z,3.55
2019-04-29T06:07:42.836Z,3.15
2019-04-29T06:10:10.137Z,2.72
2019-04-29T06:12:37.351Z,2.50
2019-04-29T06:15:05.749Z,2.80
2019-04-29T06:17:32.955Z,2.85
2019-04-29T06:20:00.188Z,2.92
2019-04-29T06:22:27.405Z,2.40
2019-04-29T06:24:54.623Z,2.90
2019-04-29T06:27:21.840Z,3.35
2019-04-29T06:29:49.063Z,2.50
2019-04-29T06:32:20.207Z,2.50
2019-04-29T06:34:45.315Z,2.20
2019-04-29T06:37:12.536Z,2.05
2019-04-29T06:39:39.779Z,2.52
2019-04-29T06:42:07.000Z,1.72
2019-04-29T06:44:34.248Z,2.30
2019-04-29T06:47:01.462Z,2.75
2019-04-29T06:49:28.699Z,2.52
2019-04-29T06:51:59.043Z,2.45
2019-04-29T06:54:26.321Z,2.05
2019-04-29T06:56:53.555Z,2.00
2019-04-29T06:59:20.799Z,2.67
2019-04-29T07:01:48.015Z,2.52
2019-04-29T07:04:15.846Z,1.82
2019-04-29T07:06:56.266Z,2.17
2019-04-29T07:09:12.000Z,2.08
2019-04-29T07:11:39.227Z,1.95
2019-04-29T07:14:06.471Z,1.80
2019-04-29T07:16:33.878Z,1.95
2019-04-29T07:19:01.099Z,1.65
2019-04-29T07:21:28.339Z,2.10
2019-04-29T07:23:55.564Z,2.70
2019-04-29T07:26:22.792Z,2.27
2019-04-29T07:28:53.313Z,2.00
2019-04-29T07:31:19.539Z,1.63
2019-04-29T07:33:46.752Z,1.57
2019-04-29T07:36:13.976Z,1.97
2019-04-29T07:38:42.026Z,2.08
2019-04-29T07:41:10.167Z,1.97
2019-04-29T07:43:38.629Z,2.17
2019-04-29T07:46:24.097Z,1.80
2019-04-29T07:49:01.481Z,1.97
2019-04-29T07:51:20.268Z,2.00
2019-04-29T07:53:47.483Z,2.33
2019-04-29T07:56:14.710Z,2.33
2019-04-29T07:58:41.920Z,2.37
2019-04-29T08:01:09.144Z,2.30
2019-04-29T08:03:36.360Z,2.50
2019-04-29T08:06:03.592Z,2.00
2019-04-29T08:08:31.570Z,2.00
2019-04-29T08:10:58.792Z,2.20
2019-04-29T08:13:26.284Z,2.20
2019-04-29T08:15:53.522Z,1.73
2019-04-29T08:18:20.740Z,2.20
2019-04-29T08:20:48.314Z,2.07
2019-04-29T08:23:15.552Z,2.40
2019-04-29T08:25:42.776Z,2.20
2019-04-29T08:28:10.083Z,1.77
2019-04-29T08:30:37.392Z,2.30
2019-04-29T08:33:07.527Z,2.53
2019-04-29T08:35:36.751Z,2.10
2019-04-29T08:38:02.653Z,2.07
2019-04-29T08:40:29.870Z,2.63
2019-04-29T08:43:01.670Z,2.80
2019-04-29T08:45:40.520Z,2.33
2019-04-29T08:48:07.958Z,2.50
2019-04-29T08:50:35.181Z,2.20
2019-04-29T08:53:02.762Z,2.30
2019-04-29T08:55:31.387Z,1.80
2019-04-29T08:57:58.931Z,3.03
2019-04-29T09:00:26.237Z,2.80
2019-04-29T09:02:53.447Z,2.90
2019-04-29T09:05:20.664Z,2.17
2019-04-29T09:07:47.888Z,2.63
2019-04-29T09:10:15.367Z,2.00
2019-04-29T09:12:42.587Z,2.50
2019-04-29T09:15:10.549Z,2.07
2019-04-29T09:17:37.766Z,2.33
2019-04-29T09:20:05.663Z,2.67
2019-04-29T09:22:34.515Z,2.53
2019-04-29T09:25:21.345Z,3.53
2019-04-29T09:27:48.960Z,2.37
2019-04-29T09:30:16.901Z,2.00
2019-04-29T09:32:44.118Z,2.63
2019-04-29T09:35:11.406Z,3.30
2019-04-29T09:37:38.636Z,2.97
2019-04-29T09:40:07.398Z,2.43
2019-04-29T09:42:52.465Z,2.87
2019-04-29T09:45:30.091Z,2.70
2019-04-29T09:47:57.306Z,3.07
2019-04-29T09:50:24.526Z,3.23
2019-04-29T09:52:51.759Z,2.30
2019-04-29T09:55:20.352Z,3.20
2019-04-29T09:57:47.561Z,3.80
2019-04-29T10:00:25.911Z,2.70
2019-04-29T10:02:54.776Z,2.50
2019-04-29T10:05:40.430Z,3.47
2019-04-29T10:08:07.658Z,3.20
2019-04-29T10:10:37.190Z,3.07
2019-04-29T10:13:04.179Z,2.80
2019-04-29T10:15:49.560Z,2.90
2019-04-29T10:18:25.000Z,2.63
2019-04-29T10:20:57.381Z,3.03
2019-04-29T10:23:24.595Z,2.90
2019-04-29T10:25:51.820Z,3.17
2019-04-29T10:28:19.040Z,2.27
2019-04-29T10:30:46.260Z,2.90
2019-04-29T10:33:17.635Z,2.53
2019-04-29T10:35:45.166Z,2.07
2019-04-29T10:38:11.475Z,2.90
2019-04-29T10:40:41.863Z,2.37
2019-04-29T10:43:29.013Z,2.83
2019-04-29T10:45:57.873Z,2.60
2019-04-29T10:48:26.729Z,2.70
2019-04-29T10:50:55.419Z,2.60
2019-04-29T10:53:22.712Z,2.57
2019-04-29T10:55:49.931Z,2.47
2019-04-29T10:58:21.916Z,2.70
2019-04-29T11:00:52.751Z,3.67
2019-04-29T11:03:20.751Z,2.67
2019-04-29T11:06:00.087Z,2.40
2019-04-29T11:08:21.267Z,2.80
2019-04-29T11:10:48.488Z,3.20
2019-04-29T11:13:15.789Z,2.53
2019-04-29T11:15:44.931Z,2.80
2019-04-29T11:18:12.022Z,2.77
2019-04-29T11:20:39.244Z,1.90
2019-04-29T11:23:17.574Z,2.23
2019-04-29T11:26:00.424Z,2.53
2019-04-29T11:28:27.719Z,2.60
2019-04-29T11:30:54.935Z,2.30
2019-04-29T11:33:26.241Z,2.87
2019-04-29T11:35:59.106Z,2.70
2019-04-29T11:38:28.628Z,2.40
2019-04-29T11:40:56.621Z,3.17
2019-04-29T11:43:23.863Z,2.80
2019-04-29T11:45:51.103Z,2.57
2019-04-29T11:48:18.532Z,2.63
2019-04-29T11:50:59.523Z,2.67
2019-04-29T11:53:26.791Z,3.10
2019-04-29T11:55:57.177Z,2.60
2019-04-29T11:58:41.040Z,2.27
2019-04-29T12:01:37.852Z,2.40
2019-04-29T12:03:58.307Z,2.37
2019-04-29T12:06:26.193Z,2.67
2019-04-29T12:08:55.096Z,2.53
2019-04-29T12:11:22.475Z,2.77
2019-04-29T12:13:51.423Z,3.30
2019-04-29T12:16:32.270Z,2.50
2019-04-29T12:19:10.487Z,2.57
2019-04-29T12:21:39.357Z,2.07
2019-04-29T12:24:07.648Z,2.20
2019-04-29T12:26:41.055Z,1.87
2019-04-29T12:29:04.083Z,2.90
2019-04-29T12:31:32.937Z,2.40
2019-04-29T12:34:13.985Z,2.10
2019-04-29T12:36:54.821Z,3.30
2019-04-29T12:39:11.856Z,3.20
2019-04-29T12:42:00.617Z,3.70
2019-04-29T12:44:34.924Z,4.70
2019-04-29T12:46:58.355Z,2.50
2019-04-29T12:49:25.582Z,3.27
2019-04-29T12:51:52.792Z,2.60
2019-04-29T12:54:20.026Z,2.50
2019-04-29T12:56:49.244Z,2.57
2019-04-29T12:59:16.168Z,2.33
2019-04-29T13:01:55.768Z,2.50
2019-04-29T13:04:24.135Z,2.37
2019-04-29T13:07:11.380Z,2.10
2019-04-29T13:09:40.690Z,1.63
2019-04-29T13:12:18.951Z,3.10
2019-04-29T13:14:39.167Z,2.33
2019-04-29T13:17:26.593Z,2.30
2019-04-29T13:20:02.039Z,3.00
2019-04-29T13:22:29.039Z,2.30
2019-04-29T13:24:56.271Z,2.30
2019-04-29T13:27:25.347Z,1.97
2019-04-29T13:29:52.440Z,3.03
2019-04-29T13:32:19.664Z,2.20
2019-04-29T13:34:48.456Z,2.80
2019-04-29T13:37:19.009Z,2.70
2019-04-29T13:39:44.737Z,2.73
2019-04-29T13:42:15.549Z,3.00
2019-04-29T13:44:42.586Z,2.13
2019-04-29T13:47:31.027Z,2.30
2019-04-29T13:50:17.177Z,1.93
2019-04-29T13:52:31.539Z,1.97
2019-04-29T13:55:16.150Z,2.50
2019-04-29T13:57:27.703Z,2.03
2019-04-29T14:00:14.254Z,2.50
2019-04-29T14:02:58.922Z,2.00
2019-04-29T14:05:22.216Z,2.27
2019-04-29T14:07:52.698Z,2.47
2019-04-29T14:10:18.377Z,2.30
2019-04-29T14:12:48.841Z,2.17
2019-04-29T14:15:14.718Z,1.87
2019-04-29T14:17:42.004Z,2.33
2019-04-29T14:20:10.958Z,2.97
2019-04-29T14:22:38.320Z,2.90
2019-04-29T14:25:05.623Z,2.60
2019-04-29T14:27:32.856Z,2.43
2019-04-29T14:30:02.915Z,3.13
2019-04-29T14:32:34.796Z,2.40
2019-04-29T14:35:11.888Z,2.67
2019-04-29T14:37:36.127Z,2.97
2019-04-29T14:40:07.757Z,3.40
2019-04-29T14:42:35.299Z,3.33
2019-04-29T14:45:22.545Z,3.33
2019-04-29T14:48:07.699Z,3.80
2019-04-29T14:50:35.223Z,2.90
2019-04-29T14:53:03.114Z,4.50
2019-04-29T14:55:30.488Z,3.47
2019-04-29T14:57:57.741Z,4.30
2019-04-29T15:00:43.208Z,3.70
2019-04-29T15:03:10.653Z,3.47
2019-04-29T15:05:38.003Z,3.73
2019-04-29T15:08:05.275Z,6.13
2019-04-29T15:10:36.531Z,4.20
2019-04-29T15:13:20.198Z,5.13
2019-04-29T15:15:49.267Z,3.97
2019-04-29T15:18:47.164Z,4.40
2019-04-29T15:21:06.155Z,4.00
2019-04-29T15:23:34.039Z,3.70
2019-04-29T15:26:01.259Z,4.83
2019-04-29T15:28:28.547Z,3.73
2019-04-29T15:30:55.775Z,2.97
2019-04-29T15:33:23.283Z,3.23
2019-04-29T15:35:50.537Z,3.60
2019-04-29T15:38:17.747Z,3.13
2019-04-29T15:40:44.984Z,3.57
2019-04-29T15:43:12.419Z,3.13
2019-04-29T15:45:40.687Z,2.77
2019-04-29T15:48:08.012Z,3.13
2019-04-29T15:50:37.216Z,3.10
2019-04-29T15:53:04.488Z,2.97
2019-04-29T15:55:34.791Z,3.47
2019-04-29T15:58:01.410Z,3.37
2019-04-29T16:00:36.262Z,3.37
2019-04-29T16:02:58.107Z,3.70
2019-04-29T16:05:56.142Z,3.27
2019-04-29T16:08:12.492Z,3.53
2019-04-29T16:10:41.443Z,4.60
2019-04-29T16:13:16.687Z,4.40
2019-04-29T16:15:44.284Z,3.60
2019-04-29T16:18:14.748Z,5.40
2019-04-29T16:20:40.624Z,3.90
2019-04-29T16:23:07.860Z,3.63
2019-04-29T16:25:40.653Z,4.00
2019-04-29T16:28:04.119Z,3.73
2019-04-29T16:30:32.162Z,4.13
2019-04-29T16:33:00.302Z,4.07
2019-04-29T16:35:34.437Z,3.53
2019-04-29T16:37:56.463Z,3.00
2019-04-29T16:40:25.440Z,3.20
2019-04-29T16:43:09.375Z,4.00
2019-04-29T16:45:44.167Z,2.97
2019-04-29T16:48:09.647Z,4.77
2019-04-29T16:50:36.867Z,3.20
2019-04-29T16:53:04.245Z,3.50
2019-04-29T16:55:35.777Z,4.90
2019-04-29T16:58:07.620Z,4.30
2019-04-29T17:00:30.980Z,4.67
2019-04-29T17:02:58.201Z,3.90
2019-04-29T17:05:25.602Z,4.30
2019-04-29T17:07:52.819Z,3.90
2019-04-29T17:10:36.968Z,4.20
2019-04-29T17:13:09.000Z,4.83
2019-04-29T17:15:33.314Z,4.90
2019-04-29T17:18:00.527Z,5.50
2019-04-29T17:20:27.754Z,4.50
2019-04-29T17:22:54.967Z,3.53
2019-04-29T17:25:22.364Z,2.60
2019-04-29T17:27:57.408Z,3.40
2019-04-29T17:30:46.407Z,3.43
2019-04-29T17:33:26.207Z,3.40
2019-04-29T17:35:49.245Z,3.40
2019-04-29T17:38:16.689Z,3.63
2019-04-29T17:40:50.869Z,4.30
2019-04-29T17:43:26.763Z,3.07
2019-04-29T17:45:55.623Z,3.73
2019-04-29T17:48:30.669Z,2.77
2019-04-29T17:51:05.534Z,3.17
2019-04-29T17:53:35.441Z,2.83
2019-04-29T17:56:05.309Z,2.03
2019-04-29T17:58:51.668Z,2.53
2019-04-29T18:01:28.900Z,2.67
2019-04-29T18:04:06.419Z,2.37
2019-04-29T18:06:44.318Z,3.70
2019-04-29T18:09:30.329Z,3.67
2019-04-29T18:11:57.973Z,3.50
2019-04-29T18:14:32.535Z,3.63
2019-04-29T18:16:55.570Z,3.62
2019-04-29T18:19:42.837Z,3.90
2019-04-29T18:22:17.468Z,4.72
2019-04-29T18:24:55.528Z,3.80
2019-04-29T18:27:25.317Z,3.50
2019-04-29T18:29:54.924Z,3.33
2019-04-29T18:32:33.458Z,4.00
2019-04-29T18:34:50.740Z,3.80
2019-04-29T18:37:17.959Z,4.87
2019-04-29T18:39:45.203Z,5.27
2019-04-29T18:42:12.527Z,4.28
2019-04-29T18:44:42.129Z,4.37
2019-04-29T18:47:19.720Z,4.80
2019-04-29T18:49:37.635Z,5.00
2019-04-29T18:52:07.560Z,3.50
2019-04-29T18:54:35.620Z,4.12
2019-04-29T18:57:03.032Z,3.73
2019-04-29T18:59:33.497Z,3.90
2019-04-29T19:02:01.052Z,4.47
2019-04-29T19:04:35.638Z,4.83
2019-04-29T19:07:02.968Z,4.10
2019-04-29T19:09:32.158Z,4.50
2019-04-29T19:12:00.844Z,7.40
2019-04-29T19:14:28.380Z,4.85
2019-04-29T19:17:00.149Z,4.10
2019-04-29T19:19:25.381Z,4.17
2019-04-29T19:21:52.835Z,4.20
2019-04-29T19:24:20.053Z,3.47
2019-04-29T19:26:47.279Z,3.75
2019-04-29T19:29:15.621Z,4.50
2019-04-29T19:31:46.804Z,3.90
2019-04-29T19:34:14.708Z,3.95
2019-04-29T19:36:40.866Z,4.12
2019-04-29T19:39:08.308Z,3.17
2019-04-29T19:41:35.857Z,3.95
2019-04-29T19:44:05.875Z,4.12
2019-04-29T19:46:38.497Z,4.35
2019-04-29T19:49:08.048Z,3.72
2019-04-29T19:51:30.873Z,4.75
2019-04-29T19:53:58.100Z,4.08
2019-04-29T19:56:27.070Z,4.03
2019-04-29T19:58:57.314Z,5.00
2019-04-29T20:01:29.764Z,4.75
2019-04-29T20:03:56.851Z,3.80
2019-04-29T20:06:27.188Z,3.90
2019-04-29T20:08:57.120Z,4.50
2019-04-29T20:11:31.671Z,4.60
2019-04-29T20:14:02.095Z,4.80
2019-04-29T20:16:43.433Z,4.95
2019-04-29T20:19:16.229Z,4.58
2019-04-29T20:21:41.274Z,4.30
2019-04-29T20:24:09.363Z,4.65
2019-04-29T20:26:39.382Z,4.55
2019-04-29T20:29:07.788Z,5.45
2019-04-29T20:31:37.364Z,5.45
2019-04-29T20:34:05.979Z,5.30
2019-04-29T20:36:39.482Z,6.55
2019-04-29T20:39:02.147Z,5.55
2019-04-29T20:41:40.208Z,7.00
2019-04-29T20:44:00.827Z,7.33
2019-04-29T20:46:39.855Z,8.08
2019-04-29T20:48:59.662Z,8.45
2019-04-29T20:51:32.180Z,8.83
2019-04-29T20:53:59.041Z,10.15
2019-04-29T20:56:29.005Z,9.60
2019-04-29T20:58:55.635Z,10.95
2019-04-29T21:01:38.640Z,10.40
2019-04-29T21:04:02.470Z,11.10
2019-04-29T21:06:32.617Z,10.20
2019-04-29T21:08:58.834Z,11.12
2019-04-29T21:11:30.354Z,10.63
2019-04-29T21:14:05.494Z,11.40
